Carrington, North Dakota
Current Conditions -  °F | °C
As of 1:55 PM on Saturday 25 Oct 2014 (Local Time) from K46D Reporting Station
Clear Clear  
Wind Chill: 57°   Ceiling: Unl
Heat Index: 57°   Visibility: 10mi
Dew Point: 25°   Wind: 9mph
Humidity: 29%   Direction: 310°NW
Pressure: 30.11"   Gusts: 17mph
Location:  47.45°N, 99.13°W
Report Text: K46D 251855Z AUTO 31008G15KT 10SM CLR 14/M04 A3011 RMK AO2
Loading
Personal Weather Stations






























Interactive Weather Map New forecast layout! Learn more

10-Day Weather Forecast

Advertisements
Track Severe Weather on mobile